Observations for LONDON HEATHROW, United Kingdom (EGLL)

EGLL 211750Z AUTO VRB03KT 3600 RA BKN003 OVC008 06/05 Q1007 TEMPO 5000 BKN006   
EGLL 211720Z AUTO 14005KT 110V170 4400 RA BKN004/// OVC010/// //////TCU 06/05 Q1007 RERA TEMPO 5000 -RA BKN006  
EGLL 211650Z AUTO 16006KT 6000 -RA BKN004/// OVC012/// //////TCU 06/05 Q1008 RERA REDZ TEMPO 4000 RADZ  
EGLL 211620Z AUTO 16006KT 130V190 4200 -RADZ OVC006/// //////TCU 05/05 Q1008 TEMPO RADZ 
EGLL 211550Z AUTO 13004KT 7000 -RA OVC006 04/04 Q1009 TEMPO 4000 RADZ   
EGLL 211520Z 10005KT 070V140 7000 -RA BKN006 BKN008 04/03 Q1009 TEMPO 4000 RADZ 
EGLL 211450Z 10006KT 8000 -RA BKN006 BKN008 03/03 Q1010 TEMPO 4000 RADZ 
EGLL 211420Z 11008KT 7000 -RA OVC006 03/02 Q1010
EGLL 211350Z 12008KT 3400 -RA SCT006 SCT008 BKN010 03/02 Q1011 TEMPO RA BKN006  
EGLL 211320Z 12008KT 3300 -RA SCT005 SCT008 BKN011 02/02 Q1012 RERA TEMPO RA BKN008 
EGLL 211250Z 11009KT 3000 RA SCT005 BKN010 02/01 Q1012 NOSIG
EGLL 211220Z 11007KT 3500 RA FEW005 BKN008 01/01 Q1013 TEMPO -RA
EGLL 211150Z 11007KT 4000 -RASN BKN005 BKN021 01/01 Q1014 TEMPO RA  
EGLL 211120Z 12009KT 3700 -RASN BKN005 BKN020 02/01 Q1014 NOSIG 
EGLL 211050Z 13008KT 3700 -RASN FEW004 BKN005 BKN022 02/01 Q1015 NOSIG  
EGLL 211020Z 14007KT 3700 -RASN BKN005 OVC023 02/01 Q1015 NOSIG 
EGLL 210950Z AUTO 12007KT 3600 -RASN SCT005 BKN011 OVC032 02/01 Q1015 RERA  
EGLL 210920Z AUTO 14005KT 090V200 3200 RA SCT006 BKN011 OVC030 02/01 Q1016 TEMPO 2500 -RASN BKN007  
EGLL 210850Z AUTO VRB03KT 3400 -RA SCT011 BKN016 OVC033 02/01 Q1016 TEMPO RA
EGLL 210820Z AUTO 20004KT 150V260 3400 -RA BKN019 OVC036 02/01 Q1016 TEMPO RA   
EGLL 210750Z AUTO 22004KT 170V260 4800 HZ BKN033 BKN043 02/01 Q1016 TEMPO 5000 -RA  
EGLL 210720Z AUTO 19005KT 160V220 5000 HZ NCD 02/01 Q1015 TEMPO 4000
EGLL 210650Z AUTO 22005KT 180V260 6000 NCD 02/01 Q1015 TEMPO 4000 -RA   
EGLL 210620Z AUTO 20004KT 160V240 5000 HZ NCD 02/01 Q1015 TEMPO 4000 -RA
EGLL 210550Z VRB03KT 6000 NSC 02/01 Q1015   
EGLL 210520Z VRB03KT 7000 NSC 02/01 Q1015 TEMPO 4000 -RA
EGLL 210450Z VRB02KT 7000 NSC 01/00 Q1015 TEMPO 4000 BR 
EGLL 210420Z AUTO VRB01KT 5000 HZ NCD 01/00 Q1014 TEMPO 4500
EGLL 210350Z AUTO 31002KT 4700 HZ NCD 01/00 Q1014 NOSIG 
EGLL 210320Z AUTO 00000KT 6000 FEW008 01/00 Q1014 NOSIG 
EGLL 210250Z AUTO 32001KT 6000 FEW009 01/00 Q1014 NOSIG 
EGLL 210220Z AUTO 29002KT 6000 SCT007 01/00 Q1014 NOSIG 
EGLL 210150Z AUTO VRB02KT 7000 SCT008 02/00 Q1014 TEMPO BKN008  
EGLL 210120Z AUTO 30006KT 8000 BKN008 02/01 Q1014 NOSIG 
EGLL 210050Z AUTO 30005KT 9000 BKN009 02/01 Q1013 TEMPO BKN010  
EGLL 210020Z AUTO 30004KT 9999 BKN009 02/01 Q1013   
EGLL 202350Z AUTO 29004KT 9999 BKN009 02/01 Q1012 TEMPO BKN010  
EGLL 202320Z AUTO 30005KT 9000 BKN009 02/01 Q1011 TREMPO BKN010 
EGLL 202250Z AUTO VRB02KT 9999 BKN008 03/01 Q1010 TEMPO BKN010  
EGLL 202220Z AUTO 33005KT 270V010 9999 BKN008 OVC014 03/01 Q1010 NOSIG  
EGLL 202150Z AUTO VRB03KT 9999 BKN009 BKN029 03/02 Q1009 TEMPO SCT009   
EGLL 202120Z AUTO VRB02KT 9999 FEW010 BKN027 03/01 Q1008 TEMPO BKN010   
EGLL 202050Z AUTO 01005KT 340V050 9999 BKN009 03/02 Q1008   
EGLL 202020Z AUTO 36004KT 330V050 9999 BKN007 03/02 Q1007 TEMPO SCT007  
EGLL 201950Z AUTO 36005KT 9999 BKN006 BKN023 OVC029 03/02 Q1006 TEMPO SCT006 BKN010 
EGLL 201920Z AUTO 01006KT 340V040 3600 HZ OVC006 03/02 Q1005 NOSIG  
EGLL 201850Z AUTO 36005KT 340V050 9999 BKN007 OVC012 03/02 Q1004 NOSIG  
EGLL 201820Z AUTO 36006KT 9999 BKN006 03/02 Q1003 NOSIG 
EGLL 201750Z 05006KT 360V080 9999 BKN008 BKN021 03/02 Q1002 NOSIG   
EGLL 201720Z 04005KT 9999 BKN007 04/03 Q1001 NOSIG